createdAt,value
2017-09-19T00:02:31.520Z,1007.51
2017-09-19T00:12:31.482Z,1007.59
2017-09-19T00:22:31.545Z,1007.55
2017-09-19T00:32:31.431Z,1007.57
2017-09-19T00:42:31.433Z,1007.55
2017-09-19T00:52:31.418Z,1007.48
2017-09-19T01:02:31.417Z,1007.48
2017-09-19T01:12:31.548Z,1007.49
2017-09-19T01:22:31.498Z,1007.53
2017-09-19T01:32:31.468Z,1007.57
2017-09-19T01:42:31.528Z,1007.64
2017-09-19T01:52:31.427Z,1007.6
2017-09-19T02:02:31.452Z,1007.59
2017-09-19T02:12:31.408Z,1007.56
2017-09-19T02:22:31.458Z,1007.57
2017-09-19T02:32:31.414Z,1007.54
2017-09-19T02:42:31.423Z,1007.59
2017-09-19T02:52:31.469Z,1007.63
2017-09-19T03:02:31.515Z,1007.63
2017-09-19T03:12:31.440Z,1007.7
2017-09-19T03:22:31.430Z,1007.61
2017-09-19T03:32:31.408Z,1007.54
2017-09-19T03:42:31.460Z,1007.69
2017-09-19T03:52:31.424Z,1007.69
2017-09-19T04:02:31.408Z,1007.7
2017-09-19T04:12:31.431Z,1007.64
2017-09-19T04:22:31.498Z,1007.76
2017-09-19T04:32:31.459Z,1007.75
2017-09-19T04:42:31.421Z,1007.82
2017-09-19T04:52:31.420Z,1007.91
2017-09-19T05:02:31.440Z,1008.04
2017-09-19T05:12:31.536Z,1008.08
2017-09-19T05:22:31.481Z,1008.18
2017-09-19T05:32:31.434Z,1008.24
2017-09-19T05:42:31.410Z,1008.27
2017-09-19T05:52:31.405Z,1008.43
2017-09-19T06:02:31.512Z,1008.48
2017-09-19T06:12:31.421Z,1008.61
2017-09-19T06:22:31.418Z,1008.77
2017-09-19T06:32:31.507Z,1008.82
2017-09-19T06:42:31.396Z,1008.85
2017-09-19T06:52:31.399Z,1008.95
2017-09-19T07:02:31.486Z,1008.95
2017-09-19T07:12:31.411Z,1009.03
2017-09-19T07:22:31.502Z,1009.21
2017-09-19T07:32:31.412Z,1009.27
2017-09-19T07:42:31.445Z,1009.46
2017-09-19T07:52:31.410Z,1009.58
2017-09-19T08:02:31.456Z,1009.59
2017-09-19T08:12:31.430Z,1009.6
2017-09-19T08:22:31.417Z,1009.73
2017-09-19T08:32:31.582Z,1009.78
2017-09-19T08:42:31.520Z,1009.89
2017-09-19T08:52:34.397Z,1009.91
2017-09-19T09:02:31.424Z,1009.91
2017-09-19T09:12:31.510Z,1010.02
2017-09-19T09:22:31.426Z,1010
2017-09-19T09:32:31.543Z,1010.12
2017-09-19T09:42:31.514Z,1010.05
2017-09-19T09:52:31.455Z,1010.06
2017-09-19T10:02:31.495Z,1010.15
2017-09-19T10:12:31.408Z,1010.21
2017-09-19T10:22:31.421Z,1010.29
2017-09-19T10:32:31.504Z,1010.3
2017-09-19T10:42:31.502Z,1010.33
2017-09-19T10:52:31.506Z,1010.39
2017-09-19T11:02:31.455Z,1010.32
2017-09-19T11:12:31.450Z,1010.29
2017-09-19T11:22:31.453Z,1010.37
2017-09-19T11:32:31.462Z,1010.45
2017-09-19T11:42:31.527Z,1010.48
2017-09-19T11:52:31.525Z,1010.56
2017-09-19T12:02:31.434Z,1010.58
2017-09-19T12:12:31.509Z,1010.62
2017-09-19T12:22:31.534Z,1010.66
2017-09-19T12:32:31.526Z,1010.68
2017-09-19T12:42:31.491Z,1010.68
2017-09-19T12:52:31.452Z,1010.72
2017-09-19T13:02:31.533Z,1010.76
2017-09-19T13:12:31.459Z,1010.71
2017-09-19T13:22:31.430Z,1010.81
2017-09-19T13:32:31.502Z,1010.83
2017-09-19T13:42:31.481Z,1010.89
2017-09-19T13:52:31.550Z,1010.82
2017-09-19T14:02:31.510Z,1010.73
2017-09-19T14:12:32.572Z,1010.88
2017-09-19T14:32:31.452Z,1010.74
2017-09-19T14:42:31.550Z,1010.68
2017-09-19T14:52:31.449Z,1010.58
2017-09-19T15:02:31.542Z,1010.62
2017-09-19T15:12:31.527Z,1010.72
2017-09-19T15:22:31.488Z,1010.73
2017-09-19T15:32:31.543Z,1010.88
2017-09-19T15:42:31.548Z,1010.92
2017-09-19T15:52:31.456Z,1011.02
2017-09-19T16:02:31.476Z,1011.11
2017-09-19T16:12:31.466Z,1011.1
2017-09-19T16:22:31.524Z,1011.1
2017-09-19T16:32:31.471Z,1011.2
2017-09-19T16:42:31.550Z,1011.21
2017-09-19T16:52:31.590Z,1011.25
2017-09-19T17:02:31.496Z,1011.3
2017-09-19T17:12:31.575Z,1011.48
2017-09-19T17:22:31.465Z,1011.63
2017-09-19T17:32:31.471Z,1011.62
2017-09-19T17:42:31.458Z,1011.74
2017-09-19T17:52:31.510Z,1011.73
2017-09-19T18:02:31.563Z,1011.83
2017-09-19T18:12:31.507Z,1011.96
2017-09-19T18:22:31.463Z,1012
2017-09-19T18:32:32.201Z,1011.99
2017-09-19T18:42:31.522Z,1012.14
2017-09-19T18:52:31.561Z,1012.18
2017-09-19T19:02:31.475Z,1012.19
2017-09-19T19:12:31.503Z,1012.31
2017-09-19T19:22:31.567Z,1012.32
2017-09-19T19:32:31.468Z,1012.36
2017-09-19T19:42:31.450Z,1012.35
2017-09-19T19:52:31.453Z,1012.35
2017-09-19T20:02:32.272Z,1012.4
2017-09-19T20:12:31.511Z,1012.57
2017-09-19T20:22:31.674Z,1012.53
2017-09-19T20:32:31.527Z,1012.54
2017-09-19T20:42:31.758Z,1012.49
2017-09-19T20:52:31.575Z,1012.58
2017-09-19T21:02:31.550Z,1012.56
2017-09-19T21:12:31.455Z,1012.55
2017-09-19T21:22:31.816Z,1012.56
2017-09-19T21:32:31.542Z,1012.61
2017-09-19T21:42:31.514Z,1012.53
2017-09-19T21:52:31.467Z,1012.63
2017-09-19T22:02:40.563Z,1012.59
2017-09-19T22:12:31.485Z,1012.53
2017-09-19T22:22:31.550Z,1012.45
2017-09-19T22:32:31.505Z,1012.46
2017-09-19T22:42:31.449Z,1012.52
2017-09-19T22:52:31.545Z,1012.47
2017-09-19T23:02:31.455Z,1012.46
2017-09-19T23:12:31.448Z,1012.48
2017-09-19T23:22:31.445Z,1012.48
2017-09-19T23:32:31.454Z,1012.5
2017-09-19T23:42:31.547Z,1012.58
2017-09-19T23:52:31.500Z,1012.6
